createdAt,value
2018-09-21T00:00:08.502Z,15.60
2018-09-21T00:02:36.983Z,15.50
2018-09-21T00:05:06.241Z,15.40
2018-09-21T00:07:35.072Z,15.40
2018-09-21T00:10:03.457Z,15.40
2018-09-21T00:12:31.935Z,15.40
2018-09-21T00:15:00.483Z,15.40
2018-09-21T00:17:28.859Z,15.50
2018-09-21T00:19:57.285Z,15.40
2018-09-21T00:22:25.832Z,15.40
2018-09-21T00:24:54.287Z,15.50
2018-09-21T00:27:22.766Z,15.50
2018-09-21T00:29:51.204Z,15.50
2018-09-21T00:32:19.581Z,15.40
2018-09-21T00:34:47.931Z,15.30
2018-09-21T00:37:16.343Z,15.30
2018-09-21T00:39:44.703Z,15.20
2018-09-21T00:42:13.129Z,15.10
2018-09-21T00:44:41.549Z,15.20
2018-09-21T00:47:09.978Z,15.20
2018-09-21T00:49:38.867Z,15.30
2018-09-21T00:52:07.654Z,15.30
2018-09-21T00:54:36.093Z,15.40
2018-09-21T00:57:04.429Z,15.30
2018-09-21T00:59:32.801Z,15.30
2018-09-21T01:02:01.225Z,15.30
2018-09-21T01:04:33.901Z,15.30
2018-09-21T01:07:02.221Z,15.20
2018-09-21T01:09:30.708Z,15.20
2018-09-21T01:11:59.153Z,15.10
2018-09-21T01:14:27.512Z,15.10
2018-09-21T01:16:55.957Z,15.20
2018-09-21T01:19:24.331Z,15.20
2018-09-21T01:21:52.680Z,15.10
2018-09-21T01:24:21.191Z,15.00
2018-09-21T01:26:49.792Z,15.00
2018-09-21T01:29:18.233Z,14.90
2018-09-21T01:31:46.680Z,14.90
2018-09-21T01:34:15.633Z,14.90
2018-09-21T01:36:44.027Z,14.90
2018-09-21T01:39:12.405Z,14.80
2018-09-21T01:41:40.777Z,14.80
2018-09-21T01:44:09.672Z,14.80
2018-09-21T01:46:38.626Z,14.90
2018-09-21T01:49:07.219Z,14.90
2018-09-21T01:51:35.629Z,14.90
2018-09-21T01:54:04.122Z,14.80
2018-09-21T01:56:32.527Z,14.80
2018-09-21T01:59:01.015Z,14.80
2018-09-21T02:01:29.421Z,14.80
2018-09-21T02:03:57.825Z,14.80
2018-09-21T02:06:26.180Z,14.80
2018-09-21T02:08:54.639Z,14.80
2018-09-21T02:11:23.045Z,14.80
2018-09-21T02:13:51.535Z,14.70
2018-09-21T02:16:19.890Z,14.70
2018-09-21T02:18:48.425Z,14.60
2018-09-21T02:21:16.904Z,14.50
2018-09-21T02:23:45.242Z,14.50
2018-09-21T02:26:13.632Z,14.50
2018-09-21T02:28:41.985Z,14.50
2018-09-21T02:31:10.282Z,14.50
2018-09-21T02:33:38.596Z,14.40
2018-09-21T02:36:07.221Z,14.40
2018-09-21T02:38:35.519Z,14.40
2018-09-21T02:41:03.822Z,14.40
2018-09-21T02:43:32.109Z,14.40
2018-09-21T02:46:00.483Z,14.40
2018-09-21T02:48:28.827Z,14.40
2018-09-21T02:50:57.185Z,14.40
2018-09-21T02:53:25.529Z,14.50
2018-09-21T02:55:53.897Z,14.50
2018-09-21T02:58:22.277Z,14.60
2018-09-21T03:00:50.930Z,14.50
2018-09-21T03:03:19.126Z,14.50
2018-09-21T03:05:47.520Z,14.50
2018-09-21T03:08:15.930Z,14.40
2018-09-21T03:10:44.285Z,14.50
2018-09-21T03:13:12.674Z,14.50
2018-09-21T03:15:41.056Z,14.40
2018-09-21T03:18:09.419Z,14.30
2018-09-21T03:20:37.867Z,14.40
2018-09-21T03:23:06.344Z,14.40
2018-09-21T03:25:34.707Z,14.50
2018-09-21T03:28:03.002Z,14.40
2018-09-21T03:30:31.434Z,14.40
2018-09-21T03:32:59.759Z,14.40
2018-09-21T03:35:28.108Z,14.40
2018-09-21T03:37:56.503Z,14.30
2018-09-21T03:40:24.956Z,14.30
2018-09-21T03:42:53.365Z,14.20
2018-09-21T03:45:21.748Z,14.20
2018-09-21T03:47:50.211Z,14.20
2018-09-21T03:50:18.636Z,14.20
2018-09-21T03:52:47.086Z,14.20
2018-09-21T03:55:15.464Z,14.20
2018-09-21T03:57:43.895Z,14.10
2018-09-21T04:00:12.311Z,14.10
2018-09-21T04:02:40.720Z,14.20
2018-09-21T04:05:09.127Z,14.20
2018-09-21T04:07:37.596Z,14.10
2018-09-21T04:10:06.010Z,14.10
2018-09-21T04:12:34.427Z,14.20
2018-09-21T04:15:02.815Z,14.20
2018-09-21T04:17:31.176Z,14.10
2018-09-21T04:19:59.528Z,14.10
2018-09-21T04:22:28.077Z,14.00
2018-09-21T04:24:56.430Z,14.00
2018-09-21T04:27:25.076Z,14.00
2018-09-21T04:29:53.533Z,14.10
2018-09-21T04:32:22.013Z,14.10
2018-09-21T04:34:51.400Z,14.10
2018-09-21T04:37:19.824Z,14.10
2018-09-21T04:39:48.557Z,14.10
2018-09-21T04:42:17.115Z,14.10
2018-09-21T04:44:45.538Z,14.10
2018-09-21T04:47:13.975Z,14.10
2018-09-21T04:49:42.794Z,14.20
2018-09-21T04:52:11.189Z,14.30
2018-09-21T04:54:39.578Z,14.40
2018-09-21T04:57:08.073Z,14.40
2018-09-21T04:59:36.494Z,14.40
2018-09-21T05:02:04.971Z,14.40
2018-09-21T05:04:33.352Z,14.50
2018-09-21T05:07:01.786Z,14.60
2018-09-21T05:09:30.108Z,14.70
2018-09-21T05:11:58.478Z,14.70
2018-09-21T05:14:26.926Z,14.60
2018-09-21T05:16:55.333Z,14.60
2018-09-21T05:19:23.753Z,14.60
2018-09-21T05:21:52.199Z,14.60
2018-09-21T05:24:20.617Z,14.70
2018-09-21T05:26:48.989Z,14.80
2018-09-21T05:29:17.357Z,15.00
2018-09-21T05:31:45.755Z,15.10
2018-09-21T05:34:14.143Z,15.10
2018-09-21T05:36:42.600Z,15.00
2018-09-21T05:39:14.281Z,15.20
2018-09-21T05:41:43.156Z,15.30
2018-09-21T05:44:12.217Z,15.50
2018-09-21T05:46:41.441Z,15.60
2018-09-21T05:49:09.969Z,15.70
2018-09-21T05:51:38.353Z,15.80
2018-09-21T05:54:06.816Z,15.80
2018-09-21T05:56:35.466Z,16.00
2018-09-21T05:59:03.939Z,16.10
2018-09-21T06:01:32.285Z,16.10
2018-09-21T06:04:00.701Z,16.20
2018-09-21T06:06:29.139Z,16.30
2018-09-21T06:08:57.567Z,16.50
2018-09-21T06:11:25.939Z,16.60
2018-09-21T06:13:54.587Z,16.70
2018-09-21T06:16:23.005Z,16.80
2018-09-21T06:18:51.397Z,16.80
2018-09-21T06:21:19.829Z,17.00
2018-09-21T06:23:48.316Z,17.10
2018-09-21T06:26:16.722Z,17.20
2018-09-21T06:28:45.155Z,17.30
2018-09-21T06:31:13.598Z,17.50
2018-09-21T06:33:42.032Z,17.60
2018-09-21T06:36:10.446Z,17.70
2018-09-21T06:38:38.794Z,17.80
2018-09-21T06:41:07.377Z,17.90
2018-09-21T06:43:36.173Z,18.30
2018-09-21T06:46:05.535Z,18.70
2018-09-21T06:48:33.926Z,19.10
2018-09-21T06:51:02.318Z,19.40
2018-09-21T06:53:30.897Z,19.40
2018-09-21T06:55:59.224Z,19.40
2018-09-21T06:58:27.732Z,19.30
2018-09-21T07:00:56.294Z,19.50
2018-09-21T07:03:25.340Z,19.70
2018-09-21T07:05:53.832Z,19.60
2018-09-21T07:08:22.230Z,19.70
2018-09-21T07:10:50.572Z,19.80
2018-09-21T07:13:26.771Z,19.90
2018-09-21T07:15:55.200Z,20.10
2018-09-21T07:18:23.601Z,20.30
2018-09-21T07:20:51.988Z,20.50
2018-09-21T07:23:20.414Z,20.70
2018-09-21T07:25:48.848Z,21.00
2018-09-21T07:28:17.380Z,21.40
2018-09-21T07:30:45.819Z,21.60
2018-09-21T07:33:14.242Z,21.70
2018-09-21T07:35:42.708Z,22.00
2018-09-21T07:38:11.100Z,22.30
2018-09-21T07:40:39.581Z,23.20
2018-09-21T07:43:08.031Z,24.10
2018-09-21T07:45:36.360Z,25.30
2018-09-21T07:48:04.722Z,26.20
2018-09-21T07:50:33.185Z,27.40
2018-09-21T07:53:01.525Z,28.00
2018-09-21T07:55:29.863Z,28.60
2018-09-21T07:57:58.241Z,29.10
2018-09-21T08:00:26.684Z,29.40
2018-09-21T08:02:55.132Z,29.60
2018-09-21T08:05:39.003Z,29.70
2018-09-21T08:08:07.439Z,29.90
2018-09-21T08:10:35.850Z,29.90
2018-09-21T08:13:04.269Z,29.90
2018-09-21T08:15:32.722Z,29.80
2018-09-21T08:18:01.097Z,29.50
2018-09-21T08:20:29.495Z,29.50
2018-09-21T08:22:57.945Z,29.70
2018-09-21T08:25:26.292Z,29.60
2018-09-21T08:27:54.680Z,29.60
2018-09-21T08:30:23.177Z,29.30
2018-09-21T08:32:51.553Z,28.40
2018-09-21T08:35:19.992Z,28.20
2018-09-21T08:37:48.393Z,28.20
2018-09-21T08:40:16.697Z,28.40
2018-09-21T08:42:45.163Z,28.30
2018-09-21T08:45:13.505Z,28.00
2018-09-21T08:47:41.991Z,27.90
2018-09-21T08:50:10.786Z,28.00
2018-09-21T08:52:39.143Z,28.00
2018-09-21T08:55:07.788Z,28.10
2018-09-21T08:57:36.154Z,28.00
2018-09-21T09:00:04.760Z,27.80
2018-09-21T09:02:33.212Z,27.70
2018-09-21T09:05:01.655Z,27.90
2018-09-21T09:07:30.097Z,27.70
2018-09-21T09:09:58.548Z,27.90
2018-09-21T09:12:26.993Z,27.90
2018-09-21T09:14:55.389Z,27.90
2018-09-21T09:17:23.820Z,28.20
2018-09-21T09:19:52.195Z,28.30
2018-09-21T09:22:20.601Z,28.40
2018-09-21T09:24:48.996Z,28.40
2018-09-21T09:27:17.390Z,28.40
2018-09-21T09:29:45.844Z,28.30
2018-09-21T09:32:14.492Z,28.30
2018-09-21T09:34:42.898Z,28.40
2018-09-21T09:37:11.274Z,28.80
2018-09-21T09:39:39.674Z,28.50
2018-09-21T09:42:08.044Z,29.00
2018-09-21T09:44:36.412Z,29.30
2018-09-21T09:47:04.832Z,29.30
2018-09-21T09:49:33.365Z,29.40
2018-09-21T09:52:03.111Z,29.40
2018-09-21T09:54:31.466Z,29.50
2018-09-21T09:56:59.888Z,29.60
2018-09-21T09:59:28.332Z,29.90
2018-09-21T10:01:56.722Z,30.00
2018-09-21T10:04:25.136Z,30.00
2018-09-21T10:06:53.513Z,29.60
2018-09-21T10:09:21.926Z,29.70
2018-09-21T10:11:50.307Z,30.00
2018-09-21T10:14:18.726Z,29.80
2018-09-21T10:16:47.231Z,29.80
2018-09-21T10:19:15.669Z,29.90
2018-09-21T10:21:44.210Z,29.80
2018-09-21T10:24:12.655Z,30.00
2018-09-21T10:26:41.099Z,30.30
2018-09-21T10:29:09.424Z,30.20
2018-09-21T10:31:37.884Z,30.40
2018-09-21T10:34:06.335Z,30.30
2018-09-21T10:36:34.879Z,30.10
2018-09-21T10:39:03.894Z,30.10
2018-09-21T10:41:32.400Z,30.10
2018-09-21T10:44:00.813Z,30.20
2018-09-21T10:46:29.303Z,30.20
2018-09-21T10:48:57.657Z,30.30
2018-09-21T10:51:26.088Z,30.70
2018-09-21T10:53:54.613Z,30.70
2018-09-21T10:56:22.961Z,30.70
2018-09-21T10:58:51.373Z,30.20
2018-09-21T11:01:19.762Z,29.80
2018-09-21T11:03:48.199Z,29.50
2018-09-21T11:06:16.645Z,29.60
2018-09-21T11:08:45.068Z,29.70
2018-09-21T11:11:13.493Z,29.30
2018-09-21T11:13:41.867Z,29.10
2018-09-21T11:16:10.250Z,28.90
2018-09-21T11:18:38.669Z,28.70
2018-09-21T11:21:07.083Z,28.30
2018-09-21T11:23:35.487Z,28.30
2018-09-21T11:26:03.947Z,28.40
2018-09-21T11:28:32.454Z,28.70
2018-09-21T11:31:00.837Z,29.30
2018-09-21T11:33:29.308Z,29.50
2018-09-21T11:35:58.355Z,29.30
2018-09-21T11:38:26.787Z,29.20
2018-09-21T11:40:55.207Z,29.20
2018-09-21T11:43:23.608Z,29.50
2018-09-21T11:45:51.969Z,29.60
2018-09-21T11:48:20.393Z,30.00
2018-09-21T11:50:48.786Z,29.90
2018-09-21T11:53:17.225Z,29.90
2018-09-21T11:55:45.686Z,29.70
2018-09-21T11:58:14.126Z,29.70
2018-09-21T12:00:42.593Z,29.80
2018-09-21T12:03:11.025Z,29.60
2018-09-21T12:05:39.474Z,29.90
2018-09-21T12:08:07.940Z,30.00
2018-09-21T12:10:36.366Z,30.20
2018-09-21T12:13:04.727Z,30.20
2018-09-21T12:15:33.143Z,30.30
2018-09-21T12:18:01.714Z,30.20
2018-09-21T12:20:30.159Z,30.20
2018-09-21T12:22:58.554Z,30.40
2018-09-21T12:25:26.925Z,30.20
2018-09-21T12:27:55.271Z,30.00
2018-09-21T12:30:23.800Z,29.90
2018-09-21T12:32:52.480Z,29.60
2018-09-21T12:35:20.901Z,29.50
2018-09-21T12:37:49.284Z,29.20
2018-09-21T12:40:17.657Z,29.00
2018-09-21T12:42:46.030Z,29.00
2018-09-21T12:45:14.456Z,28.80
2018-09-21T12:47:42.885Z,28.60
2018-09-21T12:50:11.282Z,28.60
2018-09-21T12:52:39.643Z,28.50
2018-09-21T12:55:08.087Z,28.30
2018-09-21T12:57:36.513Z,28.30
2018-09-21T13:00:06.034Z,28.40
2018-09-21T13:02:34.439Z,28.50
2018-09-21T13:05:02.792Z,28.50
2018-09-21T13:07:31.254Z,28.50
2018-09-21T13:09:59.630Z,28.50
2018-09-21T13:12:28.192Z,28.60
2018-09-21T13:14:56.623Z,28.50
2018-09-21T13:17:25.113Z,28.40
2018-09-21T13:19:53.695Z,28.60
2018-09-21T13:22:22.026Z,28.70
2018-09-21T13:24:50.611Z,28.60
2018-09-21T13:27:19.085Z,28.50
2018-09-21T13:29:47.489Z,28.50
2018-09-21T13:32:15.927Z,28.50
2018-09-21T13:34:44.375Z,28.40
2018-09-21T13:37:12.862Z,28.20
2018-09-21T13:39:41.287Z,28.20
2018-09-21T13:42:09.721Z,28.30
2018-09-21T13:44:38.127Z,28.20
2018-09-21T13:47:06.575Z,28.10
2018-09-21T13:49:35.073Z,28.00
2018-09-21T13:52:03.532Z,27.60
2018-09-21T13:54:32.021Z,27.40
2018-09-21T13:57:00.522Z,27.50
2018-09-21T13:59:28.931Z,27.50
2018-09-21T14:01:57.337Z,27.30
2018-09-21T14:04:25.742Z,27.20
2018-09-21T14:06:54.079Z,27.20
2018-09-21T14:09:23.235Z,27.20
2018-09-21T14:11:51.578Z,27.30
2018-09-21T14:14:19.961Z,27.30
2018-09-21T14:16:48.475Z,27.40
2018-09-21T14:19:16.880Z,27.40
2018-09-21T14:21:45.253Z,27.30
2018-09-21T14:24:13.789Z,27.30
2018-09-21T14:26:42.180Z,27.20
2018-09-21T14:29:10.591Z,27.10
2018-09-21T14:31:38.916Z,27.00
2018-09-21T14:34:07.339Z,27.00
2018-09-21T14:36:35.730Z,26.90
2018-09-21T14:39:05.223Z,26.90
2018-09-21T14:41:33.640Z,26.80
2018-09-21T14:44:01.973Z,26.80
2018-09-21T14:46:30.384Z,26.70
2018-09-21T14:48:58.853Z,26.60
2018-09-21T14:51:27.274Z,26.70
2018-09-21T14:53:55.701Z,26.60
2018-09-21T14:56:24.139Z,26.60
2018-09-21T14:58:52.717Z,26.50
2018-09-21T15:01:21.467Z,26.40
2018-09-21T15:03:49.846Z,26.50
2018-09-21T15:06:18.307Z,26.50
2018-09-21T15:08:46.708Z,26.40
2018-09-21T15:11:15.214Z,26.40
2018-09-21T15:13:43.638Z,26.20
2018-09-21T15:16:12.073Z,26.20
2018-09-21T15:18:40.462Z,26.10
2018-09-21T15:21:08.849Z,26.00
2018-09-21T15:23:37.225Z,26.10
2018-09-21T15:26:05.695Z,26.20
2018-09-21T15:28:34.179Z,26.00
2018-09-21T15:31:02.599Z,25.90
2018-09-21T15:33:30.957Z,25.90
2018-09-21T15:35:59.427Z,25.90
2018-09-21T15:38:27.902Z,25.70
2018-09-21T15:40:56.287Z,25.70
2018-09-21T15:43:25.040Z,25.50
2018-09-21T15:45:53.486Z,25.40
2018-09-21T15:48:22.203Z,25.30
2018-09-21T15:50:50.575Z,25.30
2018-09-21T15:53:18.943Z,25.30
2018-09-21T15:55:47.399Z,25.30
2018-09-21T15:58:15.781Z,25.20
2018-09-21T16:00:44.291Z,25.20
2018-09-21T16:03:12.705Z,25.30
2018-09-21T16:05:41.279Z,25.20
2018-09-21T16:08:09.649Z,25.20
2018-09-21T16:10:38.107Z,25.10
2018-09-21T16:13:06.524Z,25.00
2018-09-21T16:15:34.861Z,24.90
2018-09-21T16:18:03.305Z,24.90
2018-09-21T16:20:31.897Z,24.80
2018-09-21T16:23:00.326Z,24.80
2018-09-21T16:25:28.786Z,24.80
2018-09-21T16:27:57.158Z,24.70
2018-09-21T16:30:25.653Z,24.60
2018-09-21T16:32:54.099Z,24.60
2018-09-21T16:35:22.429Z,24.50
2018-09-21T16:37:50.931Z,24.60
2018-09-21T16:40:19.361Z,24.60
2018-09-21T16:42:47.695Z,24.50
2018-09-21T16:45:16.205Z,24.50
2018-09-21T16:47:44.588Z,24.40
2018-09-21T16:50:13.015Z,24.40
2018-09-21T16:52:41.354Z,24.40
2018-09-21T16:55:09.826Z,24.30
2018-09-21T16:57:38.341Z,24.30
2018-09-21T17:00:07.681Z,24.20
2018-09-21T17:02:36.113Z,24.20
2018-09-21T17:05:05.173Z,24.30
2018-09-21T17:07:33.519Z,24.10
2018-09-21T17:10:01.947Z,24.00
2018-09-21T17:12:30.415Z,24.00
2018-09-21T17:14:58.849Z,23.90
2018-09-21T17:17:27.242Z,23.70
2018-09-21T17:19:55.662Z,23.70
2018-09-21T17:22:24.040Z,23.60
2018-09-21T17:24:52.401Z,23.60
2018-09-21T17:27:20.745Z,23.60
2018-09-21T17:29:49.235Z,23.50
2018-09-21T17:32:17.617Z,23.40
2018-09-21T17:34:46.042Z,23.00
2018-09-21T17:37:14.393Z,22.90
2018-09-21T17:39:42.800Z,22.80
2018-09-21T17:42:11.186Z,22.90
2018-09-21T17:44:39.509Z,22.90
2018-09-21T17:47:08.003Z,22.70
2018-09-21T17:49:37.239Z,22.80
2018-09-21T17:52:05.598Z,22.60
2018-09-21T17:54:34.001Z,22.50
2018-09-21T17:57:02.378Z,22.40
2018-09-21T17:59:30.735Z,22.40
2018-09-21T18:01:59.034Z,22.40
2018-09-21T18:04:27.516Z,22.30
2018-09-21T18:06:55.874Z,22.30
2018-09-21T18:09:24.243Z,22.20
2018-09-21T18:11:52.625Z,22.10
2018-09-21T18:14:21.042Z,21.90
2018-09-21T18:16:49.568Z,21.80
2018-09-21T18:19:17.967Z,21.70
2018-09-21T18:21:46.471Z,21.60
2018-09-21T18:24:15.121Z,21.50
2018-09-21T18:26:43.477Z,21.50
2018-09-21T18:29:11.930Z,21.50
2018-09-21T18:31:40.400Z,21.50
2018-09-21T18:34:08.701Z,21.50
2018-09-21T18:36:37.151Z,21.50
2018-09-21T18:39:06.997Z,21.40
2018-09-21T18:41:35.334Z,21.40
2018-09-21T18:44:04.117Z,21.40
2018-09-21T18:46:32.514Z,21.30
2018-09-21T18:49:01.017Z,21.30
2018-09-21T18:51:29.355Z,21.40
2018-09-21T18:53:57.752Z,21.30
2018-09-21T18:56:26.203Z,21.30
2018-09-21T18:58:54.611Z,21.30
2018-09-21T19:01:22.983Z,21.20
2018-09-21T19:03:51.404Z,21.10
2018-09-21T19:06:19.793Z,21.00
2018-09-21T19:08:48.352Z,20.90
2018-09-21T19:11:17.166Z,20.80
2018-09-21T19:13:50.051Z,20.70
2018-09-21T19:16:20.661Z,20.00
2018-09-21T19:18:51.106Z,19.40
2018-09-21T19:21:21.188Z,18.90
2018-09-21T19:23:51.890Z,18.80
2018-09-21T19:26:22.228Z,18.30
2018-09-21T19:28:50.879Z,18.00
2018-09-21T19:31:21.334Z,17.90
2018-09-21T19:33:58.783Z,17.50
2018-09-21T19:36:27.410Z,17.20
2018-09-21T19:38:57.680Z,17.00
2018-09-21T19:41:27.456Z,16.90
2018-09-21T19:43:57.896Z,16.70
2018-09-21T19:46:26.335Z,16.60
2018-09-21T19:48:54.785Z,16.30
2018-09-21T19:51:23.288Z,16.10
2018-09-21T19:53:51.654Z,15.80
2018-09-21T19:56:20.046Z,15.60
2018-09-21T19:58:48.477Z,15.30
2018-09-21T20:01:16.871Z,15.20
2018-09-21T20:03:45.188Z,15.20
2018-09-21T20:06:14.171Z,15.10
2018-09-21T20:08:42.922Z,14.90
2018-09-21T20:11:12.131Z,14.80
2018-09-21T20:13:41.602Z,14.80
2018-09-21T20:16:10.830Z,14.90
2018-09-21T20:18:40.417Z,14.80
2018-09-21T20:21:09.561Z,14.70
2018-09-21T20:23:39.083Z,14.50
2018-09-21T20:26:08.345Z,14.60
2018-09-21T20:28:36.869Z,14.50
2018-09-21T20:31:10.874Z,14.40
2018-09-21T20:33:40.540Z,14.40
2018-09-21T20:36:27.701Z,14.30
2018-09-21T20:38:56.541Z,14.40
2018-09-21T20:41:25.321Z,14.40
2018-09-21T20:43:54.556Z,14.20
2018-09-21T20:46:22.982Z,14.10
2018-09-21T20:48:51.444Z,13.90
2018-09-21T20:51:19.845Z,14.00
2018-09-21T20:53:48.217Z,14.00
2018-09-21T20:56:16.659Z,14.00
2018-09-21T20:58:45.065Z,14.00
2018-09-21T21:01:13.751Z,14.00
2018-09-21T21:03:42.228Z,14.20
2018-09-21T21:06:10.705Z,14.10
2018-09-21T21:08:39.185Z,14.10
2018-09-21T21:11:07.626Z,14.10
2018-09-21T21:13:36.201Z,14.10
2018-09-21T21:16:05.006Z,14.20
2018-09-21T21:18:34.571Z,14.10
2018-09-21T21:21:05.579Z,14.00
2018-09-21T21:23:34.507Z,14.00
2018-09-21T21:26:03.691Z,14.00
2018-09-21T21:28:32.888Z,14.00
2018-09-21T21:31:01.406Z,14.00
2018-09-21T21:33:29.760Z,14.00
2018-09-21T21:35:58.373Z,14.00
2018-09-21T21:38:26.786Z,13.90
2018-09-21T21:40:55.140Z,13.90
2018-09-21T21:43:23.537Z,14.00
2018-09-21T21:45:52.359Z,14.00
2018-09-21T21:48:20.745Z,14.00
2018-09-21T21:50:49.133Z,14.00
2018-09-21T21:53:17.553Z,14.00
2018-09-21T21:55:45.978Z,13.90
2018-09-21T21:58:14.447Z,14.00
2018-09-21T22:00:48.355Z,14.00
2018-09-21T22:03:16.755Z,13.90
2018-09-21T22:05:51.004Z,13.90
2018-09-21T22:08:19.371Z,13.90
2018-09-21T22:10:47.789Z,13.90
2018-09-21T22:13:21.545Z,13.90
2018-09-21T22:15:50.354Z,14.00
2018-09-21T22:18:18.814Z,14.00
2018-09-21T22:20:47.581Z,14.00
2018-09-21T22:23:15.997Z,14.10
2018-09-21T22:25:44.333Z,14.10
2018-09-21T22:28:12.672Z,14.10
2018-09-21T22:30:41.048Z,14.00
2018-09-21T22:33:09.394Z,13.90
2018-09-21T22:35:37.842Z,13.90
2018-09-21T22:38:06.369Z,13.80
2018-09-21T22:40:34.743Z,13.90
2018-09-21T22:43:03.203Z,13.90
2018-09-21T22:45:31.655Z,14.00
2018-09-21T22:48:00.048Z,14.00
2018-09-21T22:50:28.611Z,14.00
2018-09-21T22:52:57.059Z,14.00
2018-09-21T22:55:25.425Z,14.10
2018-09-21T22:57:53.746Z,13.90
2018-09-21T23:00:22.200Z,13.90
2018-09-21T23:02:50.607Z,13.90
2018-09-21T23:05:18.966Z,13.80
2018-09-21T23:07:47.405Z,13.70
2018-09-21T23:10:15.780Z,13.70
2018-09-21T23:12:44.154Z,13.70
2018-09-21T23:15:12.552Z,13.70
2018-09-21T23:17:40.948Z,13.60
2018-09-21T23:20:09.308Z,13.70
2018-09-21T23:22:37.647Z,13.60
2018-09-21T23:25:06.105Z,13.60
2018-09-21T23:27:34.471Z,13.60
2018-09-21T23:30:02.951Z,13.60
2018-09-21T23:32:31.358Z,13.60
2018-09-21T23:34:59.749Z,13.60
2018-09-21T23:37:28.143Z,13.50
2018-09-21T23:39:56.554Z,13.50
2018-09-21T23:42:25.014Z,13.50
2018-09-21T23:44:53.453Z,13.50
2018-09-21T23:47:21.868Z,13.50
2018-09-21T23:49:50.235Z,13.60
2018-09-21T23:52:18.588Z,13.50
2018-09-21T23:54:47.030Z,13.50
2018-09-21T23:57:15.443Z,13.40
2018-09-21T23:59:43.878Z,13.60
